createdAt,value
2018-09-20T00:00:13.162Z,997.8
2018-09-20T00:01:13.840Z,997.7
2018-09-20T00:02:14.516Z,997.7
2018-09-20T00:03:15.190Z,997.7
2018-09-20T00:04:15.868Z,997.7
2018-09-20T00:05:16.543Z,997.7
2018-09-20T00:06:17.220Z,997.7
2018-09-20T00:07:17.895Z,997.7
2018-09-20T00:08:18.572Z,997.7
2018-09-20T00:09:19.249Z,997.7
2018-09-20T00:10:19.925Z,997.7
2018-09-20T00:11:20.601Z,997.7
2018-09-20T00:12:21.276Z,997.7
2018-09-20T00:13:21.954Z,997.7
2018-09-20T00:14:22.631Z,997.7
2018-09-20T00:15:23.308Z,997.7
2018-09-20T00:16:23.984Z,997.7
2018-09-20T00:17:24.662Z,997.7
2018-09-20T00:18:25.337Z,997.7
2018-09-20T00:19:26.015Z,997.7
2018-09-20T00:20:26.690Z,997.7
2018-09-20T00:21:27.367Z,997.7
2018-09-20T00:22:28.046Z,997.7
2018-09-20T00:23:28.771Z,997.7
2018-09-20T00:24:29.448Z,997.6
2018-09-20T00:25:30.129Z,997.6
2018-09-20T00:26:30.802Z,997.6
2018-09-20T00:27:31.477Z,997.6
2018-09-20T00:28:32.153Z,997.7
2018-09-20T00:29:32.832Z,997.6
2018-09-20T00:30:33.506Z,997.7
2018-09-20T00:31:34.181Z,997.6
2018-09-20T00:32:34.859Z,997.6
2018-09-20T00:33:35.534Z,997.7
2018-09-20T00:34:36.211Z,997.6
2018-09-20T00:35:36.887Z,997.6
2018-09-20T00:36:37.563Z,997.6
2018-09-20T00:37:38.238Z,997.7
2018-09-20T00:38:38.917Z,997.7
2018-09-20T00:39:39.608Z,997.7
2018-09-20T00:40:40.315Z,997.7
2018-09-20T00:41:40.992Z,997.7
2018-09-20T00:42:41.669Z,997.7
2018-09-20T00:43:42.345Z,997.7
2018-09-20T00:44:43.021Z,997.6
2018-09-20T00:45:43.701Z,997.7
2018-09-20T00:46:44.375Z,997.7
2018-09-20T00:47:45.096Z,997.7
2018-09-20T00:48:45.772Z,997.7
2018-09-20T00:49:46.448Z,997.7
2018-09-20T00:50:47.126Z,997.7
2018-09-20T00:51:47.802Z,997.7
2018-09-20T00:52:48.480Z,997.7
2018-09-20T00:53:49.154Z,997.7
2018-09-20T00:54:49.831Z,997.7
2018-09-20T00:55:50.507Z,997.7
2018-09-20T00:56:51.185Z,997.7
2018-09-20T00:57:51.905Z,997.7
2018-09-20T00:58:52.583Z,997.7
2018-09-20T00:59:53.261Z,997.7
2018-09-20T01:00:53.935Z,997.7
2018-09-20T01:01:54.610Z,997.7
2018-09-20T01:02:55.288Z,997.7
2018-09-20T01:03:55.963Z,997.7
2018-09-20T01:04:56.638Z,997.7
2018-09-20T01:05:57.315Z,997.7
2018-09-20T01:06:57.990Z,997.7
2018-09-20T01:07:58.669Z,997.7
2018-09-20T01:08:59.345Z,997.7
2018-09-20T01:10:00.020Z,997.7
2018-09-20T01:11:00.698Z,997.6
2018-09-20T01:12:01.372Z,997.6
2018-09-20T01:13:02.046Z,997.6
2018-09-20T01:14:02.725Z,997.6
2018-09-20T01:15:03.400Z,997.6
2018-09-20T01:16:04.078Z,997.6
2018-09-20T01:17:04.754Z,997.6
2018-09-20T01:18:05.431Z,997.6
2018-09-20T01:19:06.105Z,997.6
2018-09-20T01:20:06.781Z,997.6
2018-09-20T01:21:07.457Z,997.6
2018-09-20T01:22:08.132Z,997.6
2018-09-20T01:23:08.808Z,997.6
2018-09-20T01:24:09.484Z,997.6
2018-09-20T01:25:10.162Z,997.6
2018-09-20T01:26:10.837Z,997.6
2018-09-20T01:27:11.514Z,997.6
2018-09-20T01:28:12.188Z,997.7
2018-09-20T01:29:12.867Z,997.6
2018-09-20T01:30:13.542Z,997.5
2018-09-20T01:31:14.219Z,997.6
2018-09-20T01:32:14.895Z,997.6
2018-09-20T01:33:15.570Z,997.6
2018-09-20T01:34:16.247Z,997.6
2018-09-20T01:35:16.970Z,997.6
2018-09-20T01:36:17.602Z,997.7
2018-09-20T01:37:18.321Z,997.7
2018-09-20T01:38:18.998Z,997.6
2018-09-20T01:39:19.673Z,997.7
2018-09-20T01:40:20.351Z,997.7
2018-09-20T01:41:21.025Z,997.7
2018-09-20T01:42:21.703Z,997.7
2018-09-20T01:43:22.379Z,997.6
2018-09-20T01:44:23.055Z,997.7
2018-09-20T01:45:23.735Z,997.7
2018-09-20T01:46:24.452Z,997.6
2018-09-20T01:47:25.128Z,997.6
2018-09-20T01:48:25.804Z,997.7
2018-09-20T01:49:26.483Z,997.7
2018-09-20T01:50:27.154Z,997.7
2018-09-20T01:51:27.831Z,997.6
2018-09-20T01:52:28.506Z,997.7
2018-09-20T01:53:29.183Z,997.7
2018-09-20T01:54:29.859Z,997.7
2018-09-20T01:55:30.580Z,997.7
2018-09-20T01:56:31.255Z,997.7
2018-09-20T01:57:31.932Z,997.7
2018-09-20T01:58:32.607Z,997.7
2018-09-20T01:59:33.285Z,997.7
2018-09-20T02:00:33.962Z,997.7
2018-09-20T02:01:34.638Z,997.6
2018-09-20T02:02:35.314Z,997.7
2018-09-20T02:03:35.988Z,997.7
2018-09-20T02:04:36.665Z,997.7
2018-09-20T02:05:37.391Z,997.7
2018-09-20T02:06:38.068Z,997.7
2018-09-20T02:07:38.747Z,997.7
2018-09-20T02:08:39.420Z,997.7
2018-09-20T02:09:40.096Z,997.7
2018-09-20T02:10:40.771Z,997.8
2018-09-20T02:11:41.448Z,997.8
2018-09-20T02:12:42.124Z,997.8
2018-09-20T02:13:42.800Z,997.8
2018-09-20T02:14:43.476Z,997.7
2018-09-20T02:15:44.153Z,997.7
2018-09-20T02:16:44.830Z,997.7
2018-09-20T02:17:45.505Z,997.7
2018-09-20T02:18:46.181Z,997.7
2018-09-20T02:19:46.856Z,997.7
2018-09-20T02:20:47.533Z,997.7
2018-09-20T02:21:48.208Z,997.7
2018-09-20T02:22:48.884Z,997.7
2018-09-20T02:23:49.559Z,997.7
2018-09-20T02:24:50.236Z,997.7
2018-09-20T02:25:50.913Z,997.7
2018-09-20T02:26:51.633Z,997.7
2018-09-20T02:27:52.308Z,997.7
2018-09-20T02:28:52.984Z,997.7
2018-09-20T02:29:53.662Z,997.7
2018-09-20T02:30:54.338Z,997.7
2018-09-20T02:31:55.014Z,997.8
2018-09-20T02:32:55.688Z,997.8
2018-09-20T02:33:56.366Z,997.8
2018-09-20T02:34:57.045Z,997.9
2018-09-20T02:35:57.717Z,997.9
2018-09-20T02:36:58.393Z,997.9
2018-09-20T02:37:59.117Z,997.9
2018-09-20T02:38:59.793Z,997.9
2018-09-20T02:40:00.468Z,997.9
2018-09-20T02:41:01.143Z,998.0
2018-09-20T02:42:01.819Z,997.9
2018-09-20T02:43:02.495Z,997.9
2018-09-20T02:44:03.172Z,997.9
2018-09-20T02:45:03.849Z,997.8
2018-09-20T02:46:04.523Z,997.8
2018-09-20T02:47:05.198Z,997.8
2018-09-20T02:48:05.872Z,997.8
2018-09-20T02:49:06.549Z,997.8
2018-09-20T02:50:07.223Z,997.8
2018-09-20T02:51:07.905Z,997.8
2018-09-20T02:52:08.622Z,997.9
2018-09-20T02:53:09.299Z,997.9
2018-09-20T02:54:09.976Z,997.9
2018-09-20T02:55:10.650Z,997.9
2018-09-20T02:56:11.324Z,997.9
2018-09-20T02:57:12.001Z,997.9
2018-09-20T02:58:12.677Z,997.9
2018-09-20T02:59:13.356Z,997.9
2018-09-20T03:00:14.033Z,997.9
2018-09-20T03:01:14.752Z,997.9
2018-09-20T03:02:15.427Z,997.9
2018-09-20T03:03:16.103Z,997.9
2018-09-20T03:04:16.778Z,997.9
2018-09-20T03:05:17.454Z,997.9
2018-09-20T03:06:18.129Z,997.9
2018-09-20T03:07:18.806Z,997.8
2018-09-20T03:08:19.482Z,997.9
2018-09-20T03:09:20.202Z,997.9
2018-09-20T03:10:20.879Z,997.8
2018-09-20T03:11:21.553Z,997.9
2018-09-20T03:12:22.231Z,997.8
2018-09-20T03:13:22.903Z,997.8
2018-09-20T03:14:23.579Z,997.8
2018-09-20T03:15:24.256Z,997.8
2018-09-20T03:16:24.929Z,997.8
2018-09-20T03:17:25.605Z,997.7
2018-09-20T03:18:26.279Z,997.7
2018-09-20T03:19:26.960Z,997.8
2018-09-20T03:20:27.629Z,997.7
2018-09-20T03:21:28.308Z,997.8
2018-09-20T03:22:28.983Z,997.7
2018-09-20T03:23:29.702Z,997.7
2018-09-20T03:24:30.377Z,997.7
2018-09-20T03:25:31.054Z,997.8
2018-09-20T03:26:31.728Z,997.8
2018-09-20T03:27:32.450Z,997.8
2018-09-20T03:28:33.127Z,997.8
2018-09-20T03:29:33.805Z,997.8
2018-09-20T03:30:34.601Z,997.8
2018-09-20T03:31:35.200Z,997.9
2018-09-20T03:32:35.875Z,997.9
2018-09-20T03:33:36.600Z,997.9
2018-09-20T03:34:37.319Z,997.9
2018-09-20T03:35:37.994Z,997.8
2018-09-20T03:36:38.713Z,997.8
2018-09-20T03:37:39.389Z,997.8
2018-09-20T03:38:40.065Z,997.8
2018-09-20T03:39:40.741Z,997.8
2018-09-20T03:40:41.415Z,997.8
2018-09-20T03:41:42.092Z,997.8
2018-09-20T03:42:42.767Z,997.8
2018-09-20T03:43:43.445Z,997.8
2018-09-20T03:44:44.117Z,997.8
2018-09-20T03:45:44.794Z,997.8
2018-09-20T03:46:45.468Z,997.8
2018-09-20T03:47:46.145Z,997.8
2018-09-20T03:48:46.863Z,997.8
2018-09-20T03:49:47.540Z,997.8
2018-09-20T03:50:48.219Z,997.8
2018-09-20T03:51:48.890Z,997.8
2018-09-20T03:52:49.601Z,997.8
2018-09-20T03:53:50.242Z,997.8
2018-09-20T03:54:50.917Z,997.8
2018-09-20T03:55:51.595Z,997.8
2018-09-20T03:56:52.317Z,997.8
2018-09-20T03:57:53.036Z,997.8
2018-09-20T03:58:53.712Z,997.8
2018-09-20T03:59:54.387Z,997.8
2018-09-20T04:00:55.061Z,997.8
2018-09-20T04:01:55.738Z,997.8
2018-09-20T04:02:56.414Z,997.8
2018-09-20T04:03:57.087Z,997.8
2018-09-20T04:04:57.763Z,997.7
2018-09-20T04:05:58.439Z,997.7
2018-09-20T04:06:59.115Z,997.7
2018-09-20T04:07:59.789Z,997.7
2018-09-20T04:09:00.465Z,997.7
2018-09-20T04:10:01.138Z,997.7
2018-09-20T04:11:01.814Z,997.7
2018-09-20T04:12:02.489Z,997.7
2018-09-20T04:13:03.163Z,997.7
2018-09-20T04:14:03.884Z,997.7
2018-09-20T04:15:04.565Z,997.7
2018-09-20T04:16:05.235Z,997.7
2018-09-20T04:17:05.910Z,997.7
2018-09-20T04:18:06.591Z,997.8
2018-09-20T04:19:07.261Z,997.8
2018-09-20T04:20:07.937Z,997.8
2018-09-20T04:21:08.611Z,997.7
2018-09-20T04:22:09.287Z,997.8
2018-09-20T04:23:09.967Z,997.8
2018-09-20T04:24:10.641Z,997.8
2018-09-20T04:25:11.336Z,997.8
2018-09-20T04:26:12.035Z,997.8
2018-09-20T04:27:12.710Z,997.8
2018-09-20T04:28:13.384Z,997.8
2018-09-20T04:29:14.061Z,997.8
2018-09-20T04:30:14.736Z,997.8
2018-09-20T04:31:15.411Z,997.8
2018-09-20T04:32:16.084Z,997.8
2018-09-20T04:33:16.762Z,997.8
2018-09-20T04:34:17.437Z,997.8
2018-09-20T04:35:18.113Z,997.8
2018-09-20T04:36:18.787Z,997.8
2018-09-20T04:37:19.464Z,997.9
2018-09-20T04:38:20.147Z,997.8
2018-09-20T04:39:20.861Z,997.9
2018-09-20T04:40:21.577Z,997.9
2018-09-20T04:41:22.260Z,997.9
2018-09-20T04:42:22.938Z,997.9
2018-09-20T04:43:23.612Z,997.9
2018-09-20T04:44:24.289Z,997.8
2018-09-20T04:45:24.979Z,997.8
2018-09-20T04:46:25.689Z,997.9
2018-09-20T04:47:26.409Z,997.8
2018-09-20T04:48:27.079Z,997.8
2018-09-20T04:49:27.756Z,997.9
2018-09-20T04:50:28.483Z,997.8
2018-09-20T04:51:29.158Z,997.9
2018-09-20T04:52:29.836Z,997.9
2018-09-20T04:53:30.588Z,997.9
2018-09-20T04:54:31.190Z,997.9
2018-09-20T04:55:31.866Z,997.9
2018-09-20T04:56:32.544Z,997.9
2018-09-20T04:57:33.223Z,997.9
2018-09-20T04:58:33.901Z,997.9
2018-09-20T04:59:34.579Z,997.9
2018-09-20T05:00:35.257Z,998.0
2018-09-20T05:01:35.978Z,998.0
2018-09-20T05:02:36.657Z,998.0
2018-09-20T05:03:37.334Z,998.0
2018-09-20T05:04:38.011Z,998.0
2018-09-20T05:05:38.690Z,998.0
2018-09-20T05:06:39.369Z,998.0
2018-09-20T05:07:40.047Z,998.0
2018-09-20T05:08:40.725Z,998.0
2018-09-20T05:09:41.405Z,998.0
2018-09-20T05:10:42.088Z,998.0
2018-09-20T05:11:42.761Z,998.0
2018-09-20T05:12:43.441Z,998.0
2018-09-20T05:13:44.119Z,998.0
2018-09-20T05:14:44.796Z,998.0
2018-09-20T05:15:45.476Z,998.0
2018-09-20T05:16:46.153Z,998.0
2018-09-20T05:17:46.835Z,998.0
2018-09-20T05:18:47.509Z,998.0
2018-09-20T05:19:48.191Z,998.0
2018-09-20T05:20:48.875Z,998.0
2018-09-20T05:21:49.551Z,998.0
2018-09-20T05:22:50.231Z,998.0
2018-09-20T05:23:50.910Z,998.0
2018-09-20T05:24:51.592Z,998.0
2018-09-20T05:25:52.271Z,998.0
2018-09-20T05:26:52.954Z,998.0
2018-09-20T05:27:53.676Z,998.0
2018-09-20T05:28:54.425Z,998.0
2018-09-20T05:29:55.046Z,998.1
2018-09-20T05:30:55.726Z,998.1
2018-09-20T05:31:56.407Z,998.1
2018-09-20T05:32:57.085Z,998.1
2018-09-20T05:33:57.766Z,998.1
2018-09-20T05:34:58.446Z,998.1
2018-09-20T05:35:59.125Z,998.1
2018-09-20T05:36:59.806Z,998.2
2018-09-20T05:38:00.486Z,998.1
2018-09-20T05:39:01.165Z,998.1
2018-09-20T05:40:01.847Z,998.1
2018-09-20T05:41:02.529Z,998.2
2018-09-20T05:42:03.206Z,998.1
2018-09-20T05:43:03.937Z,998.1
2018-09-20T05:44:04.617Z,998.1
2018-09-20T05:45:05.298Z,998.2
2018-09-20T05:46:05.977Z,998.1
2018-09-20T05:47:06.660Z,998.1
2018-09-20T05:48:07.338Z,998.1
2018-09-20T05:49:08.059Z,998.1
2018-09-20T05:50:08.741Z,998.1
2018-09-20T05:51:09.424Z,998.1
2018-09-20T05:52:10.104Z,998.2
2018-09-20T05:53:10.783Z,998.1
2018-09-20T05:54:11.464Z,998.2
2018-09-20T05:55:12.146Z,998.2
2018-09-20T05:56:12.823Z,998.2
2018-09-20T05:57:13.506Z,998.2
2018-09-20T05:58:14.187Z,998.2
2018-09-20T05:59:14.917Z,998.2
2018-09-20T06:00:15.551Z,998.2
2018-09-20T06:01:16.274Z,998.2
2018-09-20T06:02:16.954Z,998.2
2018-09-20T06:03:17.680Z,998.2
2018-09-20T06:04:18.382Z,998.1
2018-09-20T06:05:19.088Z,998.2
2018-09-20T06:06:19.767Z,998.1
2018-09-20T06:07:20.447Z,998.1
2018-09-20T06:08:21.383Z,998.1
2018-09-20T06:09:22.062Z,998.1
2018-09-20T06:10:22.742Z,998.2
2018-09-20T06:11:23.422Z,998.1
2018-09-20T06:12:24.103Z,998.1
2018-09-20T06:13:24.785Z,998.2
2018-09-20T06:14:25.467Z,998.1
2018-09-20T06:15:26.146Z,998.1
2018-09-20T06:16:26.828Z,998.2
2018-09-20T06:17:27.509Z,998.1
2018-09-20T06:18:28.193Z,998.2
2018-09-20T06:19:28.918Z,998.2
2018-09-20T06:20:29.602Z,998.2
2018-09-20T06:21:30.283Z,998.2
2018-09-20T06:22:30.965Z,998.1
2018-09-20T06:23:31.657Z,998.1
2018-09-20T06:24:32.376Z,998.1
2018-09-20T06:25:33.069Z,998.1
2018-09-20T06:26:33.784Z,998.1
2018-09-20T06:27:34.489Z,998.1
2018-09-20T06:28:35.151Z,998.2
2018-09-20T06:29:35.831Z,998.2
2018-09-20T06:30:36.512Z,998.2
2018-09-20T06:31:37.197Z,998.2
2018-09-20T06:32:37.877Z,998.2
2018-09-20T06:33:38.559Z,998.2
2018-09-20T06:34:39.243Z,998.3
2018-09-20T06:35:39.926Z,998.2
2018-09-20T06:36:40.608Z,998.3
2018-09-20T06:37:41.289Z,998.2
2018-09-20T06:38:41.976Z,998.2
2018-09-20T06:39:42.705Z,998.3
2018-09-20T06:40:43.392Z,998.3
2018-09-20T06:41:44.070Z,998.2
2018-09-20T06:42:44.754Z,998.2
2018-09-20T06:43:45.436Z,998.2
2018-09-20T06:44:46.118Z,998.2
2018-09-20T06:45:46.801Z,998.2
2018-09-20T06:46:47.484Z,998.1
2018-09-20T06:47:48.167Z,998.2
2018-09-20T06:48:48.848Z,998.2
2018-09-20T06:49:49.531Z,998.2
2018-09-20T06:50:50.214Z,998.2
2018-09-20T06:51:50.938Z,998.2
2018-09-20T06:52:51.675Z,998.2
2018-09-20T06:53:52.355Z,998.2
2018-09-20T06:54:53.037Z,998.2
2018-09-20T06:55:53.722Z,998.2
2018-09-20T06:56:54.403Z,998.2
2018-09-20T06:57:55.091Z,998.2
2018-09-20T06:58:55.815Z,998.2
2018-09-20T06:59:56.499Z,998.2
2018-09-20T07:00:57.180Z,998.2
2018-09-20T07:01:57.864Z,998.2
2018-09-20T07:02:58.558Z,998.2
2018-09-20T07:03:59.228Z,998.2
2018-09-20T07:04:59.913Z,998.2
2018-09-20T07:06:00.640Z,998.1
2018-09-20T07:07:01.325Z,998.1
2018-09-20T07:08:02.007Z,998.1
2018-09-20T07:09:02.690Z,998.2
2018-09-20T07:10:03.375Z,998.1
2018-09-20T07:11:04.057Z,998.1
2018-09-20T07:12:04.739Z,998.1
2018-09-20T07:13:05.422Z,998.2
2018-09-20T07:14:06.110Z,998.2
2018-09-20T07:15:06.789Z,998.2
2018-09-20T07:16:07.471Z,998.2
2018-09-20T07:17:08.156Z,998.2
2018-09-20T07:18:08.837Z,998.2
2018-09-20T07:19:09.543Z,998.2
2018-09-20T07:20:10.202Z,998.3
2018-09-20T07:21:10.887Z,998.2
2018-09-20T07:22:11.569Z,998.2
2018-09-20T07:23:12.251Z,998.2
2018-09-20T07:24:12.940Z,998.3
2018-09-20T07:25:13.656Z,998.2
2018-09-20T07:26:14.301Z,998.2
2018-09-20T07:27:14.986Z,998.3
2018-09-20T07:28:15.669Z,998.2
2018-09-20T07:29:16.355Z,998.2
2018-09-20T07:30:17.035Z,998.2
2018-09-20T07:31:17.720Z,998.2
2018-09-20T07:32:18.404Z,998.2
2018-09-20T07:33:19.089Z,998.1
2018-09-20T07:34:19.816Z,998.1
2018-09-20T07:35:20.503Z,998.2
2018-09-20T07:36:21.185Z,998.1
2018-09-20T07:37:21.867Z,998.1
2018-09-20T07:38:22.553Z,998.2
2018-09-20T07:39:23.239Z,998.2
2018-09-20T07:40:23.923Z,998.2
2018-09-20T07:41:24.607Z,998.2
2018-09-20T07:42:25.338Z,998.2
2018-09-20T07:43:26.047Z,998.2
2018-09-20T07:44:26.745Z,998.2
2018-09-20T07:45:27.430Z,998.2
2018-09-20T07:46:28.114Z,998.2
2018-09-20T07:47:28.799Z,998.2
2018-09-20T07:48:29.484Z,998.2
2018-09-20T07:49:30.171Z,998.2
2018-09-20T07:50:30.856Z,998.2
2018-09-20T07:51:31.540Z,998.2
2018-09-20T07:52:32.225Z,998.2
2018-09-20T07:53:32.971Z,998.2
2018-09-20T07:54:33.597Z,998.2
2018-09-20T07:55:34.283Z,998.2
2018-09-20T07:56:35.041Z,998.2
2018-09-20T07:57:35.656Z,998.1
2018-09-20T07:58:36.346Z,998.1
2018-09-20T07:59:37.028Z,998.1
2018-09-20T08:00:37.718Z,998.1
2018-09-20T08:01:38.484Z,998.1
2018-09-20T08:02:39.135Z,998.1
2018-09-20T08:03:39.821Z,998.0
2018-09-20T08:04:40.508Z,998.0
2018-09-20T08:05:41.194Z,998.1
2018-09-20T08:06:41.881Z,998.0
2018-09-20T08:07:42.568Z,998.1
2018-09-20T08:08:43.256Z,998.0
2018-09-20T08:09:43.943Z,998.0
2018-09-20T08:10:44.628Z,998.0
2018-09-20T08:11:45.316Z,998.0
2018-09-20T08:12:46.016Z,998.0
2018-09-20T08:13:46.735Z,998.0
2018-09-20T08:14:47.472Z,998.0
2018-09-20T08:15:48.202Z,998.0
2018-09-20T08:16:48.937Z,998.0
2018-09-20T08:17:49.625Z,998.1
2018-09-20T08:18:50.312Z,998.0
2018-09-20T08:19:50.999Z,998.0
2018-09-20T08:20:51.721Z,998.0
2018-09-20T08:21:52.420Z,998.0
2018-09-20T08:22:53.110Z,998.0
2018-09-20T08:23:53.794Z,998.0
2018-09-20T08:24:54.484Z,998.0
2018-09-20T08:25:55.170Z,998.0
2018-09-20T08:26:55.858Z,998.0
2018-09-20T08:27:56.610Z,998.0
2018-09-20T08:28:57.278Z,998.0
2018-09-20T08:29:57.966Z,998.0
2018-09-20T08:30:58.658Z,998.0
2018-09-20T08:31:59.343Z,998.0
2018-09-20T08:33:00.032Z,998.0
2018-09-20T08:34:00.719Z,998.0
2018-09-20T08:35:01.409Z,998.0
2018-09-20T08:36:02.101Z,998.0
2018-09-20T08:37:02.856Z,998.0
2018-09-20T08:38:03.518Z,998.0
2018-09-20T08:39:04.207Z,998.0
2018-09-20T08:40:04.895Z,998.0
2018-09-20T08:41:05.584Z,998.0
2018-09-20T08:42:06.304Z,998.0
2018-09-20T08:43:06.960Z,998.0
2018-09-20T08:44:07.649Z,998.0
2018-09-20T08:45:08.336Z,998.0
2018-09-20T08:46:09.024Z,998.0
2018-09-20T08:47:09.716Z,998.0
2018-09-20T08:48:10.446Z,998.0
2018-09-20T08:49:11.136Z,998.0
2018-09-20T08:50:11.823Z,998.0
2018-09-20T08:51:12.511Z,998.0
2018-09-20T08:52:13.197Z,998.0
2018-09-20T08:53:13.885Z,998.0
2018-09-20T08:54:14.574Z,998.0
2018-09-20T08:55:15.263Z,998.0
2018-09-20T08:56:15.951Z,998.0
2018-09-20T08:57:16.662Z,998.0
2018-09-20T08:58:17.327Z,997.9
2018-09-20T08:59:18.016Z,998.0
2018-09-20T09:00:18.707Z,998.0
2018-09-20T09:01:19.391Z,998.0
2018-09-20T09:02:20.080Z,998.0
2018-09-20T09:03:20.767Z,998.0
2018-09-20T09:04:21.462Z,998.0
2018-09-20T09:05:22.145Z,997.9
2018-09-20T09:06:22.831Z,997.9
2018-09-20T09:07:23.520Z,997.9
2018-09-20T09:08:24.207Z,997.9
2018-09-20T09:09:24.895Z,997.9
2018-09-20T09:10:25.583Z,997.9
2018-09-20T09:11:26.315Z,997.9
2018-09-20T09:12:27.004Z,997.9
2018-09-20T09:13:27.696Z,997.8
2018-09-20T09:14:28.427Z,997.9
2018-09-20T09:15:29.158Z,997.9
2018-09-20T09:16:29.846Z,997.8
2018-09-20T09:17:30.535Z,997.8
2018-09-20T09:18:31.222Z,997.8
2018-09-20T09:19:31.947Z,997.8
2018-09-20T09:20:32.598Z,997.8
2018-09-20T09:21:33.286Z,997.8
2018-09-20T09:22:33.973Z,997.7
2018-09-20T09:23:34.663Z,997.8
2018-09-20T09:24:35.427Z,997.8
2018-09-20T09:25:36.209Z,997.8
2018-09-20T09:26:37.168Z,997.7
2018-09-20T09:27:37.897Z,997.7
2018-09-20T09:28:38.595Z,997.7
2018-09-20T09:29:39.273Z,997.6
2018-09-20T09:30:39.963Z,997.7
2018-09-20T09:31:40.653Z,997.6
2018-09-20T09:32:41.338Z,997.6
2018-09-20T09:33:42.027Z,997.6
2018-09-20T09:34:42.761Z,997.6
2018-09-20T09:35:43.450Z,997.6
2018-09-20T09:36:44.137Z,997.6
2018-09-20T09:37:44.829Z,997.6
2018-09-20T09:38:45.512Z,997.5
2018-09-20T09:39:46.200Z,997.5
2018-09-20T09:40:46.897Z,997.5
2018-09-20T09:41:47.624Z,997.4
2018-09-20T09:42:48.313Z,997.5
2018-09-20T09:43:49.000Z,997.4
2018-09-20T09:44:49.691Z,997.4
2018-09-20T09:45:50.378Z,997.4
2018-09-20T09:46:51.069Z,997.5
2018-09-20T09:47:51.755Z,997.5
2018-09-20T09:48:52.445Z,997.4
2018-09-20T09:49:53.132Z,997.5
2018-09-20T09:50:53.866Z,997.4
2018-09-20T09:51:54.557Z,997.4
2018-09-20T09:52:55.243Z,997.4
2018-09-20T09:53:55.993Z,997.5
2018-09-20T09:54:56.721Z,997.5
2018-09-20T09:55:57.362Z,997.4
2018-09-20T09:56:58.043Z,997.4
2018-09-20T09:57:58.732Z,997.3
2018-09-20T09:58:59.505Z,997.3
2018-09-20T10:00:00.200Z,997.3
2018-09-20T10:01:00.956Z,997.3
2018-09-20T10:02:01.670Z,997.3
2018-09-20T10:03:02.408Z,997.3
2018-09-20T10:04:03.094Z,997.3
2018-09-20T10:05:03.780Z,997.3
2018-09-20T10:06:04.470Z,997.2
2018-09-20T10:07:05.286Z,997.2
2018-09-20T10:08:05.887Z,997.2
2018-09-20T10:09:06.585Z,997.2
2018-09-20T10:10:07.309Z,997.1
2018-09-20T10:11:07.998Z,997.1
2018-09-20T10:12:08.685Z,997.1
2018-09-20T10:13:09.425Z,997.1
2018-09-20T10:14:10.154Z,997.1
2018-09-20T10:15:10.841Z,997.1
2018-09-20T10:16:11.528Z,997.1
2018-09-20T10:17:12.218Z,997.1
2018-09-20T10:18:12.908Z,997.1
2018-09-20T10:19:13.644Z,997.0
2018-09-20T10:20:14.332Z,997.1
2018-09-20T10:21:15.020Z,997.1
2018-09-20T10:22:15.732Z,997.1
2018-09-20T10:23:16.444Z,997.0
2018-09-20T10:24:17.133Z,997.1
2018-09-20T10:25:17.820Z,997.0
2018-09-20T10:26:18.511Z,997.0
2018-09-20T10:27:19.195Z,997.0
2018-09-20T10:28:19.884Z,997.0
2018-09-20T10:29:20.572Z,996.9
2018-09-20T10:30:21.265Z,996.9
2018-09-20T10:31:22.034Z,997.0
2018-09-20T10:32:22.688Z,997.0
2018-09-20T10:33:23.373Z,997.1
2018-09-20T10:34:24.062Z,997.0
2018-09-20T10:35:24.749Z,997.0
2018-09-20T10:36:25.438Z,996.9
2018-09-20T10:37:26.165Z,997.0
2018-09-20T10:38:26.851Z,997.0
2018-09-20T10:39:27.539Z,996.9
2018-09-20T10:40:28.228Z,997.0
2018-09-20T10:41:28.916Z,996.9
2018-09-20T10:42:29.605Z,997.0
2018-09-20T10:43:30.348Z,996.9
2018-09-20T10:44:31.035Z,996.9
2018-09-20T10:45:31.725Z,996.9
2018-09-20T10:46:32.452Z,996.9
2018-09-20T10:47:33.144Z,996.9
2018-09-20T10:48:33.828Z,996.9
2018-09-20T10:49:34.516Z,996.9
2018-09-20T10:50:35.205Z,996.8
2018-09-20T10:51:35.893Z,996.8
2018-09-20T10:52:36.580Z,996.8
2018-09-20T10:53:37.267Z,996.8
2018-09-20T10:54:38.019Z,996.8
2018-09-20T10:55:38.644Z,996.8
2018-09-20T10:56:39.332Z,996.8
2018-09-20T10:57:40.020Z,996.8
2018-09-20T10:58:40.710Z,996.7
2018-09-20T10:59:41.444Z,996.7
2018-09-20T11:00:42.135Z,996.6
2018-09-20T11:01:42.823Z,996.7
2018-09-20T11:02:43.508Z,996.8
2018-09-20T11:03:44.231Z,996.6
2018-09-20T11:04:44.929Z,996.6
2018-09-20T11:05:45.616Z,996.6
2018-09-20T11:06:46.303Z,996.6
2018-09-20T11:07:46.992Z,996.6
2018-09-20T11:08:47.679Z,996.7
2018-09-20T11:09:48.366Z,996.6
2018-09-20T11:10:49.107Z,996.6
2018-09-20T11:11:49.788Z,996.6
2018-09-20T11:12:50.478Z,996.6
2018-09-20T11:13:51.208Z,996.6
2018-09-20T11:14:51.896Z,996.5
2018-09-20T11:15:52.584Z,996.5
2018-09-20T11:16:53.301Z,996.5
2018-09-20T11:17:54.006Z,996.5
2018-09-20T11:18:54.692Z,996.4
2018-09-20T11:19:55.381Z,996.6
2018-09-20T11:20:56.068Z,996.5
2018-09-20T11:21:56.754Z,996.5
2018-09-20T11:22:57.441Z,996.4
2018-09-20T11:23:58.130Z,996.4
2018-09-20T11:24:58.817Z,996.4
2018-09-20T11:25:59.511Z,996.4
2018-09-20T11:27:00.286Z,996.4
2018-09-20T11:28:00.967Z,996.5
2018-09-20T11:29:01.657Z,996.5
2018-09-20T11:30:02.342Z,996.4
2018-09-20T11:31:03.032Z,996.3
2018-09-20T11:32:03.718Z,996.3
2018-09-20T11:33:04.406Z,996.3
2018-09-20T11:34:05.093Z,996.3
2018-09-20T11:35:05.779Z,996.3
2018-09-20T11:36:06.470Z,996.3
2018-09-20T11:37:07.151Z,996.3
2018-09-20T11:38:07.839Z,996.4
2018-09-20T11:39:08.525Z,996.3
2018-09-20T11:40:09.213Z,996.3
2018-09-20T11:41:09.898Z,996.3
2018-09-20T11:42:10.589Z,996.4
2018-09-20T11:43:11.273Z,996.4
2018-09-20T11:44:11.963Z,996.4
2018-09-20T11:45:12.651Z,996.3
2018-09-20T11:46:13.337Z,996.3
2018-09-20T11:47:14.061Z,996.3
2018-09-20T11:48:14.754Z,996.3
2018-09-20T11:49:15.441Z,996.2
2018-09-20T11:50:16.129Z,996.2
2018-09-20T11:51:16.816Z,996.2
2018-09-20T11:52:17.503Z,996.2
2018-09-20T11:53:18.190Z,996.2
2018-09-20T11:54:18.877Z,996.2
2018-09-20T11:55:19.561Z,996.1
2018-09-20T11:56:20.250Z,996.1
2018-09-20T11:57:20.936Z,996.1
2018-09-20T11:58:21.623Z,996.0
2018-09-20T11:59:22.312Z,996.0
2018-09-20T12:00:22.999Z,996.1
2018-09-20T12:01:23.737Z,996.1
2018-09-20T12:02:24.371Z,996.0
2018-09-20T12:03:25.057Z,996.1
2018-09-20T12:04:25.745Z,996.0
2018-09-20T12:05:26.432Z,996.0
2018-09-20T12:06:27.115Z,996.1
2018-09-20T12:07:27.804Z,996.0
2018-09-20T12:08:28.509Z,996.0
2018-09-20T12:09:29.221Z,996.0
2018-09-20T12:10:29.908Z,995.9
2018-09-20T12:11:30.595Z,996.0
2018-09-20T12:12:31.282Z,995.9
2018-09-20T12:13:31.969Z,995.9
2018-09-20T12:14:32.671Z,995.9
2018-09-20T12:15:33.394Z,995.9
2018-09-20T12:16:34.128Z,995.9
2018-09-20T12:17:34.849Z,995.9
2018-09-20T12:18:35.537Z,995.8
2018-09-20T12:19:36.223Z,995.9
2018-09-20T12:20:36.952Z,995.8
2018-09-20T12:21:37.641Z,995.9
2018-09-20T12:22:38.328Z,995.8
2018-09-20T12:23:39.015Z,995.8
2018-09-20T12:24:39.700Z,995.8
2018-09-20T12:25:40.387Z,995.8
2018-09-20T12:26:41.076Z,995.7
2018-09-20T12:27:41.761Z,995.8
2018-09-20T12:28:42.450Z,995.8
2018-09-20T12:29:43.135Z,995.7
2018-09-20T12:30:43.822Z,995.6
2018-09-20T12:31:44.591Z,995.6
2018-09-20T12:32:45.247Z,995.6
2018-09-20T12:33:45.926Z,995.6
2018-09-20T12:34:46.613Z,995.7
2018-09-20T12:35:47.475Z,995.7
2018-09-20T12:36:48.081Z,995.6
2018-09-20T12:37:48.767Z,995.6
2018-09-20T12:38:49.505Z,995.6
2018-09-20T12:39:50.141Z,995.6
2018-09-20T12:40:50.849Z,995.5
2018-09-20T12:41:51.560Z,995.6
2018-09-20T12:42:52.296Z,995.6
2018-09-20T12:43:52.938Z,995.6
2018-09-20T12:44:53.637Z,995.6
2018-09-20T12:45:54.355Z,995.6
2018-09-20T12:46:55.043Z,995.7
2018-09-20T12:47:55.728Z,995.5
2018-09-20T12:48:56.420Z,995.6
2018-09-20T12:49:57.147Z,995.6
2018-09-20T12:50:57.834Z,995.5
2018-09-20T12:51:58.521Z,995.6
2018-09-20T12:52:59.211Z,995.4
2018-09-20T12:53:59.897Z,995.6
2018-09-20T12:55:00.582Z,995.5
2018-09-20T12:56:01.304Z,995.5
2018-09-20T12:57:02.003Z,995.5
2018-09-20T12:58:02.726Z,995.3
2018-09-20T12:59:03.376Z,995.4
2018-09-20T13:00:04.095Z,995.3
2018-09-20T13:01:04.794Z,995.4